UAL2653 KIAH-KMCI
Flight info
| Callsign | UAL2653 |
|---|---|
| Flight time | 1h 37m |
| Altitude | 38000 |
| Route | STYCK8 WTSON BYP TUL STASN WUTNG3 |
| Aircraft | B738/M-SDE2E3FGHIRWXY/LB1 |
Departure
| Time | 2026-05-06 14:40 |
|---|---|
| Airport | George Bush Intercontinental Airport (KIAH) |
Arrival
| Time | 2026-05-06 16:17 |
|---|---|
| Airport | Kansas City International Airport (KMCI) |
| Time | Latitude | Longitude | Altitude | Speed | Heading |
|---|---|---|---|---|---|
| 2026-05-06 14:12 | 29.98419 | -95.33903 | 106 ft | 0 kts | 64° |
| 2026-05-06 14:28 | 29.98411 | -95.33923 | 103 ft | 4 kts | 77° |
| 2026-05-06 14:29 | 29.98411 | -95.33951 | 105 ft | 4 kts | 115° |
| 2026-05-06 14:29 | 29.98427 | -95.33970 | 106 ft | 4 kts | 172° |
| 2026-05-06 14:29 | 29.98451 | -95.33971 | 105 ft | 3 kts | 180° |
| 2026-05-06 14:29 | 29.98455 | -95.33971 | 105 ft | 0 kts | 180° |
| 2026-05-06 14:32 | 29.98454 | -95.33971 | 105 ft | 2 kts | 180° |
| 2026-05-06 14:33 | 29.98390 | -95.33969 | 106 ft | 14 kts | 178° |
| 2026-05-06 14:33 | 29.98317 | -95.34035 | 106 ft | 14 kts | 231° |
| 2026-05-06 14:33 | 29.98300 | -95.34136 | 106 ft | 13 kts | 272° |
| 2026-05-06 14:33 | 29.98301 | -95.34238 | 106 ft | 13 kts | 269° |
| 2026-05-06 14:34 | 29.98301 | -95.34338 | 106 ft | 12 kts | 272° |
| 2026-05-06 14:34 | 29.98305 | -95.34434 | 106 ft | 12 kts | 277° |
| 2026-05-06 14:34 | 29.98323 | -95.34526 | 106 ft | 12 kts | 275° |
| 2026-05-06 14:34 | 29.98325 | -95.34617 | 106 ft | 11 kts | 269° |
| 2026-05-06 14:35 | 29.98325 | -95.34707 | 106 ft | 11 kts | 269° |
| 2026-05-06 14:35 | 29.98324 | -95.34793 | 106 ft | 11 kts | 269° |
| 2026-05-06 14:35 | 29.98323 | -95.34849 | 106 ft | 10 kts | 269° |
| 2026-05-06 14:35 | 29.98322 | -95.34959 | 106 ft | 10 kts | 269° |
| 2026-05-06 14:36 | 29.98321 | -95.35012 | 106 ft | 10 kts | 269° |
| 2026-05-06 14:36 | 29.98320 | -95.35090 | 106 ft | 10 kts | 269° |
| 2026-05-06 14:36 | 29.98317 | -95.35166 | 106 ft | 9 kts | 258° |
| 2026-05-06 14:36 | 29.98292 | -95.35233 | 105 ft | 9 kts | 261° |
| 2026-05-06 14:37 | 29.98329 | -95.35289 | 106 ft | 9 kts | 324° |
| 2026-05-06 14:37 | 29.98383 | -95.35324 | 105 ft | 9 kts | 333° |
| 2026-05-06 14:37 | 29.98436 | -95.35355 | 105 ft | 9 kts | 332° |
| 2026-05-06 14:37 | 29.98487 | -95.35388 | 105 ft | 8 kts | 329° |
| 2026-05-06 14:38 | 29.98558 | -95.35432 | 106 ft | 15 kts | 332° |
| 2026-05-06 14:38 | 29.98652 | -95.35493 | 106 ft | 15 kts | 325° |
| 2026-05-06 14:38 | 29.98736 | -95.35546 | 106 ft | 3 kts | 334° |
| 2026-05-06 14:38 | 29.98752 | -95.35555 | 105 ft | 3 kts | 332° |
| 2026-05-06 14:39 | 29.98762 | -95.35638 | 106 ft | 16 kts | 243° |
| 2026-05-06 14:39 | 29.98720 | -95.35723 | 106 ft | 7 kts | 223° |
| 2026-05-06 14:39 | 29.98675 | -95.35716 | 107 ft | 7 kts | 154° |
| 2026-05-06 14:39 | 29.98417 | -95.35559 | 105 ft | 90 kts | 152° |
| 2026-05-06 14:40 | 29.97618 | -95.35039 | 180 ft | 167 kts | 147° |
| 2026-05-06 14:40 | 29.96570 | -95.34284 | 956 ft | 190 kts | 152° |
| 2026-05-06 14:40 | 29.95345 | -95.33578 | 1813 ft | 196 kts | 159° |
| 2026-05-06 14:40 | 29.94223 | -95.33011 | 2890 ft | 171 kts | 163° |
| 2026-05-06 14:41 | 29.93092 | -95.32248 | 2828 ft | 216 kts | 141° |
| 2026-05-06 14:41 | 29.92359 | -95.30636 | 3077 ft | 242 kts | 105° |
| 2026-05-06 14:41 | 29.92312 | -95.28865 | 4464 ft | 192 kts | 88° |
| 2026-05-06 14:41 | 29.92818 | -95.27575 | 5555 ft | 181 kts | 47° |
| 2026-05-06 14:42 | 29.93945 | -95.26740 | 5785 ft | 211 kts | 18° |
| 2026-05-06 14:42 | 29.95491 | -95.26560 | 5960 ft | 237 kts | 343° |
| 2026-05-06 14:42 | 29.97121 | -95.27190 | 6151 ft | 259 kts | 323° |
| 2026-05-06 14:42 | 29.98587 | -95.28513 | 6367 ft | 276 kts | 311° |
| 2026-05-06 14:43 | 29.99999 | -95.30075 | 6856 ft | 286 kts | 310° |
| 2026-05-06 14:43 | 30.01429 | -95.31683 | 7578 ft | 286 kts | 311° |
| 2026-05-06 14:43 | 30.02863 | -95.33268 | 8337 ft | 288 kts | 311° |
| 2026-05-06 14:43 | 30.04317 | -95.34842 | 9045 ft | 291 kts | 312° |
| 2026-05-06 14:44 | 30.05813 | -95.36435 | 9717 ft | 296 kts | 312° |
| 2026-05-06 14:44 | 30.07340 | -95.38051 | 10239 ft | 306 kts | 312° |
| 2026-05-06 14:44 | 30.08954 | -95.39756 | 10390 ft | 329 kts | 314° |
| 2026-05-06 14:45 | 30.13177 | -95.42578 | 10756 ft | 372 kts | 331° |
| 2026-05-06 14:45 | 30.15504 | -95.43822 | 11236 ft | 378 kts | 330° |
| 2026-05-06 14:45 | 30.17870 | -95.45096 | 11942 ft | 379 kts | 330° |
| 2026-05-06 14:45 | 30.20256 | -95.46405 | 12617 ft | 380 kts | 330° |
| 2026-05-06 14:46 | 30.22639 | -95.47734 | 13280 ft | 382 kts | 329° |
| 2026-05-06 14:46 | 30.25044 | -95.49089 | 14016 ft | 385 kts | 329° |
| 2026-05-06 14:46 | 30.27442 | -95.50446 | 14601 ft | 388 kts | 328° |
| 2026-05-06 14:46 | 30.29890 | -95.51826 | 15125 ft | 389 kts | 328° |
| 2026-05-06 14:47 | 30.32329 | -95.53198 | 15909 ft | 392 kts | 327° |
| 2026-05-06 14:47 | 30.34767 | -95.54576 | 16496 ft | 395 kts | 327° |
| 2026-05-06 14:47 | 30.37246 | -95.55977 | 17075 ft | 398 kts | 327° |
| 2026-05-06 14:47 | 30.39750 | -95.57395 | 17663 ft | 401 kts | 326° |
| 2026-05-06 14:48 | 30.42268 | -95.58820 | 18247 ft | 404 kts | 326° |
| 2026-05-06 14:48 | 30.44800 | -95.60253 | 18748 ft | 407 kts | 326° |
| 2026-05-06 14:48 | 30.47354 | -95.61699 | 19282 ft | 410 kts | 326° |
| 2026-05-06 14:48 | 30.49922 | -95.63154 | 19782 ft | 412 kts | 326° |
| 2026-05-06 14:49 | 30.52505 | -95.64619 | 20229 ft | 415 kts | 326° |
| 2026-05-06 14:49 | 30.55122 | -95.66084 | 20779 ft | 419 kts | 327° |
| 2026-05-06 14:49 | 30.57776 | -95.67515 | 21303 ft | 421 kts | 327° |
| 2026-05-06 14:49 | 30.60439 | -95.68927 | 21788 ft | 424 kts | 327° |
| 2026-05-06 14:50 | 30.63142 | -95.70356 | 22286 ft | 427 kts | 327° |
| 2026-05-06 14:50 | 30.65852 | -95.71792 | 22752 ft | 430 kts | 327° |
| 2026-05-06 14:50 | 30.68583 | -95.73245 | 23157 ft | 434 kts | 327° |
| 2026-05-06 14:50 | 30.71343 | -95.74718 | 23583 ft | 436 kts | 327° |
| 2026-05-06 14:51 | 30.74097 | -95.76190 | 23968 ft | 438 kts | 327° |
| 2026-05-06 14:51 | 30.76870 | -95.77674 | 24346 ft | 440 kts | 327° |
| 2026-05-06 14:51 | 30.79655 | -95.79167 | 24666 ft | 442 kts | 327° |
| 2026-05-06 14:51 | 30.82459 | -95.80672 | 25028 ft | 444 kts | 326° |
| 2026-05-06 14:52 | 30.85263 | -95.82178 | 25423 ft | 446 kts | 326° |
| 2026-05-06 14:52 | 30.88071 | -95.83685 | 25788 ft | 447 kts | 326° |
| 2026-05-06 14:52 | 30.90908 | -95.85211 | 26145 ft | 449 kts | 326° |
| 2026-05-06 14:52 | 30.93739 | -95.86734 | 26483 ft | 451 kts | 326° |
| 2026-05-06 14:53 | 30.96594 | -95.88271 | 26793 ft | 453 kts | 326° |
| 2026-05-06 14:53 | 30.99468 | -95.89819 | 27113 ft | 455 kts | 326° |
| 2026-05-06 14:53 | 31.02346 | -95.91370 | 27428 ft | 457 kts | 326° |
| 2026-05-06 14:53 | 31.05238 | -95.92928 | 27753 ft | 459 kts | 325° |
| 2026-05-06 14:54 | 31.08137 | -95.94492 | 28042 ft | 461 kts | 325° |
| 2026-05-06 14:54 | 31.11057 | -95.96054 | 28377 ft | 465 kts | 327° |
| 2026-05-06 14:54 | 31.14150 | -95.97314 | 28674 ft | 479 kts | 336° |
| 2026-05-06 14:54 | 31.17445 | -95.98125 | 29005 ft | 485 kts | 339° |
| 2026-05-06 14:55 | 31.20770 | -95.98847 | 29278 ft | 488 kts | 339° |
| 2026-05-06 14:55 | 31.24072 | -95.99540 | 29567 ft | 489 kts | 339° |
| 2026-05-06 14:55 | 31.27407 | -96.00245 | 29963 ft | 487 kts | 339° |
| 2026-05-06 14:55 | 31.30739 | -96.00964 | 30337 ft | 485 kts | 339° |
| 2026-05-06 14:56 | 31.34095 | -96.01704 | 30720 ft | 482 kts | 338° |
| 2026-05-06 14:56 | 31.37339 | -96.02433 | 31062 ft | 481 kts | 338° |
| 2026-05-06 14:56 | 31.40663 | -96.03188 | 31464 ft | 480 kts | 338° |
| 2026-05-06 14:56 | 31.43893 | -96.03924 | 31834 ft | 478 kts | 337° |
| 2026-05-06 14:57 | 31.47159 | -96.04670 | 32192 ft | 477 kts | 337° |
| 2026-05-06 14:57 | 31.50420 | -96.05416 | 32541 ft | 477 kts | 337° |
| 2026-05-06 14:57 | 31.53674 | -96.06161 | 32864 ft | 477 kts | 337° |
| 2026-05-06 14:57 | 31.56926 | -96.06904 | 33223 ft | 476 kts | 337° |
| 2026-05-06 14:58 | 31.60171 | -96.07644 | 33593 ft | 475 kts | 337° |
| 2026-05-06 14:58 | 31.63407 | -96.08383 | 33912 ft | 474 kts | 337° |
| 2026-05-06 14:58 | 31.66656 | -96.09126 | 34228 ft | 474 kts | 336° |
| 2026-05-06 14:58 | 31.69888 | -96.09868 | 34423 ft | 476 kts | 336° |
| 2026-05-06 14:59 | 31.73151 | -96.10616 | 34733 ft | 475 kts | 336° |
| 2026-05-06 14:59 | 31.76386 | -96.11354 | 35091 ft | 472 kts | 336° |
| 2026-05-06 14:59 | 31.79600 | -96.12088 | 35451 ft | 470 kts | 336° |
| 2026-05-06 14:59 | 31.82807 | -96.12822 | 35766 ft | 469 kts | 336° |
| 2026-05-06 15:00 | 31.86003 | -96.13557 | 36022 ft | 469 kts | 336° |
| 2026-05-06 15:00 | 31.89203 | -96.14294 | 36294 ft | 468 kts | 336° |
| 2026-05-06 15:00 | 31.92393 | -96.15028 | 36595 ft | 466 kts | 336° |
| 2026-05-06 15:00 | 31.95570 | -96.15758 | 36997 ft | 464 kts | 335° |
| 2026-05-06 15:01 | 31.98728 | -96.16483 | 37330 ft | 461 kts | 335° |
| 2026-05-06 15:01 | 32.01882 | -96.17210 | 37577 ft | 461 kts | 335° |
| 2026-05-06 15:01 | 32.05025 | -96.17938 | 37795 ft | 462 kts | 335° |
| 2026-05-06 15:01 | 32.08175 | -96.18667 | 37996 ft | 462 kts | 335° |
| 2026-05-06 15:02 | 32.11346 | -96.19402 | 37976 ft | 465 kts | 335° |
| 2026-05-06 15:02 | 32.17702 | -96.20862 | 37983 ft | 466 kts | 336° |
| 2026-05-06 15:02 | 32.20956 | -96.21311 | 38010 ft | 477 kts | 343° |
| 2026-05-06 15:03 | 32.24284 | -96.21417 | 37989 ft | 479 kts | 346° |
| 2026-05-06 15:03 | 32.30936 | -96.21421 | 37974 ft | 478 kts | 346° |
| 2026-05-06 15:04 | 32.37563 | -96.21435 | 37974 ft | 474 kts | 346° |
| 2026-05-06 15:04 | 32.44150 | -96.21516 | 37992 ft | 473 kts | 345° |
| 2026-05-06 15:05 | 32.50734 | -96.21634 | 38007 ft | 474 kts | 345° |
| 2026-05-06 15:05 | 32.57353 | -96.21754 | 38014 ft | 476 kts | 345° |
| 2026-05-06 15:06 | 32.63984 | -96.21869 | 38020 ft | 478 kts | 345° |
| 2026-05-06 15:06 | 32.70648 | -96.21982 | 38021 ft | 480 kts | 345° |
| 2026-05-06 15:07 | 32.77346 | -96.22095 | 38022 ft | 483 kts | 345° |
| 2026-05-06 15:07 | 32.84072 | -96.22209 | 38018 ft | 484 kts | 345° |
| 2026-05-06 15:08 | 32.90813 | -96.22323 | 38006 ft | 485 kts | 345° |
| 2026-05-06 15:08 | 32.97562 | -96.22436 | 37995 ft | 485 kts | 345° |
| 2026-05-06 15:09 | 33.04314 | -96.22551 | 38005 ft | 486 kts | 344° |
| 2026-05-06 15:09 | 33.11067 | -96.22666 | 38025 ft | 485 kts | 344° |
| 2026-05-06 15:10 | 33.17818 | -96.22780 | 38013 ft | 484 kts | 344° |
| 2026-05-06 15:10 | 33.24538 | -96.22895 | 38008 ft | 483 kts | 344° |
| 2026-05-06 15:11 | 33.31201 | -96.23009 | 38006 ft | 481 kts | 344° |
| 2026-05-06 15:11 | 33.37895 | -96.23126 | 37994 ft | 480 kts | 344° |
| 2026-05-06 15:12 | 33.44570 | -96.23241 | 37997 ft | 480 kts | 344° |
| 2026-05-06 15:12 | 33.51241 | -96.23357 | 37999 ft | 479 kts | 344° |
| 2026-05-06 15:13 | 33.58002 | -96.22950 | 38006 ft | 497 kts | 353° |
| 2026-05-06 15:13 | 33.64892 | -96.21766 | 37995 ft | 501 kts | 354° |
| 2026-05-06 15:14 | 33.71769 | -96.20511 | 37997 ft | 500 kts | 354° |
| 2026-05-06 15:14 | 33.78652 | -96.19330 | 38048 ft | 499 kts | 353° |
| 2026-05-06 15:15 | 33.85525 | -96.18202 | 38065 ft | 499 kts | 353° |
| 2026-05-06 15:15 | 33.92415 | -96.17082 | 38062 ft | 500 kts | 353° |
| 2026-05-06 15:16 | 33.99294 | -96.15958 | 38059 ft | 499 kts | 353° |
| 2026-05-06 15:16 | 34.06186 | -96.14826 | 38042 ft | 499 kts | 353° |
| 2026-05-06 15:17 | 34.13080 | -96.13692 | 38035 ft | 500 kts | 353° |
| 2026-05-06 15:17 | 34.19966 | -96.12556 | 38021 ft | 500 kts | 353° |
| 2026-05-06 15:18 | 34.26857 | -96.11418 | 38018 ft | 500 kts | 353° |
| 2026-05-06 15:18 | 34.33740 | -96.10279 | 38072 ft | 500 kts | 352° |
| 2026-05-06 15:19 | 34.40640 | -96.09138 | 38025 ft | 501 kts | 352° |
| 2026-05-06 15:19 | 34.46381 | -96.08186 | 38018 ft | 501 kts | 352° |
| 2026-05-06 15:20 | 34.53275 | -96.07039 | 38012 ft | 501 kts | 352° |
| 2026-05-06 15:20 | 34.60182 | -96.05888 | 38083 ft | 500 kts | 352° |
| 2026-05-06 15:21 | 34.67084 | -96.04740 | 38047 ft | 501 kts | 352° |
| 2026-05-06 15:21 | 34.73995 | -96.03585 | 38051 ft | 501 kts | 352° |
| 2026-05-06 15:22 | 34.80889 | -96.02430 | 38050 ft | 500 kts | 352° |
| 2026-05-06 15:22 | 34.87794 | -96.01273 | 38099 ft | 500 kts | 352° |
| 2026-05-06 15:23 | 34.94695 | -96.00116 | 38069 ft | 500 kts | 352° |
| 2026-05-06 15:23 | 35.01582 | -95.98957 | 38055 ft | 500 kts | 352° |
| 2026-05-06 15:24 | 35.08467 | -95.97797 | 38055 ft | 499 kts | 352° |
| 2026-05-06 15:24 | 35.15358 | -95.96635 | 38057 ft | 500 kts | 352° |
| 2026-05-06 15:25 | 35.22248 | -95.95472 | 38055 ft | 500 kts | 352° |
| 2026-05-06 15:25 | 35.29091 | -95.94312 | 38060 ft | 499 kts | 352° |
| 2026-05-06 15:26 | 35.35942 | -95.93150 | 38142 ft | 499 kts | 352° |
| 2026-05-06 15:26 | 35.42900 | -95.91971 | 38085 ft | 501 kts | 352° |
| 2026-05-06 15:27 | 35.49758 | -95.90804 | 38097 ft | 500 kts | 352° |
| 2026-05-06 15:27 | 35.56648 | -95.89628 | 38109 ft | 500 kts | 352° |
| 2026-05-06 15:28 | 35.63545 | -95.88450 | 38146 ft | 501 kts | 352° |
| 2026-05-06 15:28 | 35.70449 | -95.87271 | 38119 ft | 501 kts | 352° |
| 2026-05-06 15:29 | 35.77356 | -95.86086 | 38107 ft | 501 kts | 352° |
| 2026-05-06 15:29 | 35.84263 | -95.84900 | 38104 ft | 501 kts | 352° |
| 2026-05-06 15:30 | 35.91181 | -95.83710 | 38105 ft | 501 kts | 352° |
| 2026-05-06 15:30 | 35.98089 | -95.82520 | 38104 ft | 502 kts | 352° |
| 2026-05-06 15:31 | 36.04998 | -95.81328 | 38122 ft | 502 kts | 352° |
| 2026-05-06 15:31 | 36.11916 | -95.80132 | 38167 ft | 502 kts | 352° |
| 2026-05-06 15:32 | 36.22323 | -95.78358 | 38102 ft | 501 kts | 351° |
| 2026-05-06 15:32 | 36.29242 | -95.77425 | 38099 ft | 498 kts | 349° |
| 2026-05-06 15:33 | 36.36132 | -95.76565 | 38104 ft | 498 kts | 349° |
| 2026-05-06 15:33 | 36.43049 | -95.75672 | 38102 ft | 500 kts | 349° |
| 2026-05-06 15:34 | 36.49956 | -95.74750 | 38096 ft | 500 kts | 350° |
| 2026-05-06 15:34 | 36.56868 | -95.73818 | 38111 ft | 499 kts | 350° |
| 2026-05-06 15:35 | 36.63767 | -95.72887 | 38181 ft | 499 kts | 349° |
| 2026-05-06 15:35 | 36.70688 | -95.71956 | 38124 ft | 500 kts | 349° |
| 2026-05-06 15:36 | 36.77607 | -95.71020 | 38106 ft | 500 kts | 349° |
| 2026-05-06 15:36 | 36.84516 | -95.70084 | 38117 ft | 499 kts | 349° |
| 2026-05-06 15:37 | 36.91375 | -95.69154 | 38123 ft | 499 kts | 349° |
| 2026-05-06 15:37 | 36.98273 | -95.68218 | 38125 ft | 498 kts | 349° |
| 2026-05-06 15:38 | 37.05161 | -95.67280 | 38126 ft | 498 kts | 349° |
| 2026-05-06 15:38 | 37.12043 | -95.66342 | 38185 ft | 497 kts | 349° |
| 2026-05-06 15:39 | 37.18923 | -95.65405 | 38129 ft | 498 kts | 349° |
| 2026-05-06 15:39 | 37.25806 | -95.64463 | 38134 ft | 497 kts | 349° |
| 2026-05-06 15:40 | 37.32690 | -95.63519 | 38126 ft | 497 kts | 349° |
| 2026-05-06 15:40 | 37.39558 | -95.62577 | 38148 ft | 498 kts | 349° |
| 2026-05-06 15:41 | 37.46449 | -95.61633 | 37878 ft | 502 kts | 349° |
| 2026-05-06 15:41 | 37.49931 | -95.61157 | 37345 ft | 502 kts | 349° |
| 2026-05-06 15:41 | 37.53397 | -95.60673 | 36793 ft | 500 kts | 349° |
| 2026-05-06 15:42 | 37.56845 | -95.60193 | 36238 ft | 499 kts | 349° |
| 2026-05-06 15:42 | 37.60296 | -95.59717 | 35654 ft | 499 kts | 349° |
| 2026-05-06 15:42 | 37.63709 | -95.59248 | 34965 ft | 502 kts | 349° |
| 2026-05-06 15:42 | 37.67245 | -95.58746 | 34210 ft | 507 kts | 350° |
| 2026-05-06 15:43 | 37.70758 | -95.58230 | 33428 ft | 510 kts | 351° |
| 2026-05-06 15:43 | 37.74278 | -95.57702 | 32701 ft | 510 kts | 351° |
| 2026-05-06 15:43 | 37.77814 | -95.57167 | 31956 ft | 511 kts | 352° |
| 2026-05-06 15:43 | 37.81338 | -95.56635 | 31222 ft | 511 kts | 352° |
| 2026-05-06 15:44 | 37.84868 | -95.56104 | 30491 ft | 512 kts | 352° |
| 2026-05-06 15:44 | 37.88419 | -95.55576 | 29523 ft | 515 kts | 353° |
| 2026-05-06 15:44 | 37.91930 | -95.55053 | 28599 ft | 515 kts | 353° |
| 2026-05-06 15:44 | 37.95462 | -95.54520 | 28006 ft | 507 kts | 353° |
| 2026-05-06 15:45 | 37.98956 | -95.53988 | 27356 ft | 502 kts | 354° |
| 2026-05-06 15:45 | 38.02397 | -95.53466 | 26742 ft | 496 kts | 354° |
| 2026-05-06 15:45 | 38.05801 | -95.52953 | 26144 ft | 490 kts | 354° |
| 2026-05-06 15:45 | 38.09174 | -95.52447 | 25560 ft | 486 kts | 354° |
| 2026-05-06 15:46 | 38.12514 | -95.51950 | 24951 ft | 481 kts | 355° |
| 2026-05-06 15:46 | 38.15874 | -95.51449 | 24328 ft | 478 kts | 355° |
| 2026-05-06 15:46 | 38.19154 | -95.50959 | 23725 ft | 474 kts | 356° |
| 2026-05-06 15:46 | 38.22418 | -95.50471 | 23031 ft | 470 kts | 356° |
| 2026-05-06 15:47 | 38.25606 | -95.49991 | 22406 ft | 464 kts | 356° |
| 2026-05-06 15:47 | 38.28840 | -95.49503 | 21748 ft | 459 kts | 356° |
| 2026-05-06 15:47 | 38.31992 | -95.49028 | 21097 ft | 455 kts | 356° |
| 2026-05-06 15:47 | 38.35078 | -95.48562 | 20518 ft | 449 kts | 356° |
| 2026-05-06 15:48 | 38.38159 | -95.48097 | 19935 ft | 444 kts | 356° |
| 2026-05-06 15:48 | 38.41204 | -95.47637 | 19369 ft | 438 kts | 356° |
| 2026-05-06 15:48 | 38.44218 | -95.47182 | 18807 ft | 433 kts | 357° |
| 2026-05-06 15:48 | 38.47195 | -95.46732 | 18223 ft | 428 kts | 357° |
| 2026-05-06 15:49 | 38.50131 | -95.46288 | 17604 ft | 423 kts | 357° |
| 2026-05-06 15:49 | 38.53029 | -95.45850 | 17090 ft | 416 kts | 358° |
| 2026-05-06 15:49 | 38.55883 | -95.45417 | 16527 ft | 409 kts | 359° |
| 2026-05-06 15:49 | 38.58678 | -95.44993 | 16042 ft | 402 kts | 359° |
| 2026-05-06 15:50 | 38.61442 | -95.44575 | 15477 ft | 397 kts | 359° |
| 2026-05-06 15:50 | 38.64171 | -95.44162 | 14996 ft | 391 kts | 360° |
| 2026-05-06 15:50 | 38.66853 | -95.43756 | 14458 ft | 386 kts | 0° |
| 2026-05-06 15:50 | 38.69509 | -95.43353 | 13954 ft | 381 kts | 1° |
| 2026-05-06 15:51 | 38.72120 | -95.42957 | 13416 ft | 376 kts | 1° |
| 2026-05-06 15:51 | 38.74705 | -95.42563 | 12900 ft | 370 kts | 2° |
| 2026-05-06 15:51 | 38.77246 | -95.42176 | 12429 ft | 365 kts | 3° |
| 2026-05-06 15:51 | 38.79724 | -95.41625 | 12020 ft | 362 kts | 17° |
| 2026-05-06 15:52 | 38.81902 | -95.40101 | 11797 ft | 357 kts | 36° |
| 2026-05-06 15:52 | 38.83637 | -95.37867 | 11491 ft | 351 kts | 46° |
| 2026-05-06 15:52 | 38.85238 | -95.35541 | 11192 ft | 344 kts | 46° |
| 2026-05-06 15:52 | 38.86789 | -95.33299 | 10890 ft | 338 kts | 46° |
| 2026-05-06 15:53 | 38.88337 | -95.31096 | 10579 ft | 331 kts | 45° |
| 2026-05-06 15:53 | 38.89856 | -95.28948 | 10311 ft | 325 kts | 45° |
| 2026-05-06 15:53 | 38.91363 | -95.26815 | 10027 ft | 319 kts | 45° |
| 2026-05-06 15:53 | 38.92822 | -95.24747 | 9930 ft | 301 kts | 45° |
| 2026-05-06 15:54 | 38.94179 | -95.22820 | 9901 ft | 281 kts | 45° |
| 2026-05-06 15:54 | 38.95498 | -95.20951 | 9321 ft | 281 kts | 45° |
| 2026-05-06 15:54 | 38.96808 | -95.19094 | 8991 ft | 281 kts | 45° |
| 2026-05-06 15:54 | 38.98102 | -95.17226 | 8739 ft | 279 kts | 49° |
| 2026-05-06 15:55 | 38.99070 | -95.15064 | 8469 ft | 279 kts | 63° |
| 2026-05-06 15:55 | 38.99806 | -95.12774 | 8226 ft | 276 kts | 65° |
| 2026-05-06 15:55 | 39.00505 | -95.10494 | 7981 ft | 273 kts | 65° |
| 2026-05-06 15:55 | 39.01217 | -95.08225 | 7737 ft | 271 kts | 65° |
| 2026-05-06 15:56 | 39.01930 | -95.06005 | 7511 ft | 267 kts | 64° |
| 2026-05-06 15:56 | 39.02645 | -95.03814 | 7278 ft | 264 kts | 64° |
| 2026-05-06 15:56 | 39.03358 | -95.01643 | 7040 ft | 262 kts | 64° |
| 2026-05-06 15:56 | 39.04053 | -94.99530 | 6825 ft | 258 kts | 64° |
| 2026-05-06 15:57 | 39.04747 | -94.97411 | 6603 ft | 256 kts | 64° |
| 2026-05-06 15:57 | 39.05446 | -94.95275 | 6343 ft | 255 kts | 63° |
| 2026-05-06 15:57 | 39.06121 | -94.93209 | 6116 ft | 252 kts | 64° |
| 2026-05-06 15:57 | 39.06799 | -94.91141 | 5893 ft | 250 kts | 64° |
| 2026-05-06 15:58 | 39.07467 | -94.89090 | 5663 ft | 247 kts | 64° |
| 2026-05-06 15:58 | 39.08125 | -94.87072 | 5452 ft | 243 kts | 64° |
| 2026-05-06 15:58 | 39.08780 | -94.85072 | 5232 ft | 241 kts | 64° |
| 2026-05-06 15:58 | 39.09424 | -94.83113 | 5058 ft | 234 kts | 61° |
| 2026-05-06 15:59 | 39.10400 | -94.81547 | 4800 ft | 220 kts | 37° |
| 2026-05-06 15:59 | 39.11560 | -94.80340 | 4735 ft | 205 kts | 37° |
| 2026-05-06 15:59 | 39.12617 | -94.79202 | 4632 ft | 192 kts | 37° |
| 2026-05-06 15:59 | 39.13611 | -94.78142 | 4540 ft | 179 kts | 36° |
| 2026-05-06 16:00 | 39.14629 | -94.77345 | 4375 ft | 166 kts | 18° |
| 2026-05-06 16:00 | 39.15757 | -94.76955 | 3924 ft | 168 kts | 12° |
| 2026-05-06 16:00 | 39.16901 | -94.76620 | 3620 ft | 166 kts | 12° |
| 2026-05-06 16:00 | 39.18014 | -94.76292 | 3386 ft | 163 kts | 12° |
| 2026-05-06 16:01 | 39.19096 | -94.75971 | 3144 ft | 155 kts | 12° |
| 2026-05-06 16:01 | 39.20142 | -94.75659 | 2943 ft | 156 kts | 13° |
| 2026-05-06 16:01 | 39.21217 | -94.75338 | 2774 ft | 158 kts | 13° |
| 2026-05-06 16:01 | 39.22293 | -94.74989 | 2522 ft | 159 kts | 10° |
| 2026-05-06 16:02 | 39.23393 | -94.74693 | 2297 ft | 162 kts | 11° |
| 2026-05-06 16:02 | 39.24492 | -94.74371 | 2074 ft | 161 kts | 12° |
| 2026-05-06 16:02 | 39.25587 | -94.74045 | 1825 ft | 163 kts | 12° |
| 2026-05-06 16:02 | 39.26677 | -94.73696 | 1631 ft | 160 kts | 12° |
| 2026-05-06 16:03 | 39.27759 | -94.73405 | 1423 ft | 159 kts | 9° |
| 2026-05-06 16:03 | 39.28841 | -94.73081 | 1174 ft | 164 kts | 11° |
| 2026-05-06 16:03 | 39.29930 | -94.72758 | 1033 ft | 151 kts | 9° |
| 2026-05-06 16:03 | 39.30858 | -94.72487 | 1250 ft | 134 kts | 6° |
| 2026-05-06 16:04 | 39.31764 | -94.72270 | 2149 ft | 150 kts | 12° |
| 2026-05-06 16:04 | 39.32945 | -94.71915 | 2862 ft | 177 kts | 12° |
| 2026-05-06 16:04 | 39.34240 | -94.71751 | 2906 ft | 192 kts | 347° |
| 2026-05-06 16:04 | 39.35391 | -94.72626 | 2974 ft | 200 kts | 311° |
| 2026-05-06 16:05 | 39.36022 | -94.74283 | 2943 ft | 211 kts | 294° |
| 2026-05-06 16:05 | 39.36558 | -94.75993 | 2979 ft | 201 kts | 295° |
| 2026-05-06 16:05 | 39.36855 | -94.77747 | 3030 ft | 208 kts | 269° |
| 2026-05-06 16:05 | 39.36508 | -94.79579 | 2975 ft | 212 kts | 242° |
| 2026-05-06 16:06 | 39.35450 | -94.80876 | 3001 ft | 214 kts | 206° |
| 2026-05-06 16:06 | 39.34048 | -94.81555 | 3005 ft | 216 kts | 201° |
| 2026-05-06 16:06 | 39.33100 | -94.81995 | 3044 ft | 219 kts | 201° |
| 2026-05-06 16:06 | 39.31778 | -94.82955 | 2985 ft | 219 kts | 211° |
| 2026-05-06 16:07 | 39.30366 | -94.83614 | 3005 ft | 215 kts | 199° |
| 2026-05-06 16:07 | 39.28932 | -94.84173 | 2992 ft | 216 kts | 199° |
| 2026-05-06 16:07 | 39.27500 | -94.84796 | 2970 ft | 216 kts | 201° |
| 2026-05-06 16:07 | 39.26118 | -94.85503 | 3001 ft | 213 kts | 203° |
| 2026-05-06 16:08 | 39.24689 | -94.85932 | 3001 ft | 209 kts | 181° |
| 2026-05-06 16:08 | 39.23246 | -94.86325 | 3010 ft | 217 kts | 210° |
| 2026-05-06 16:08 | 39.22077 | -94.87559 | 2995 ft | 217 kts | 224° |
| 2026-05-06 16:08 | 39.20974 | -94.88870 | 2993 ft | 212 kts | 226° |
| 2026-05-06 16:09 | 39.19840 | -94.89992 | 3009 ft | 204 kts | 207° |
| 2026-05-06 16:09 | 39.18477 | -94.90497 | 3006 ft | 207 kts | 196° |
| 2026-05-06 16:09 | 39.17137 | -94.91170 | 2980 ft | 207 kts | 205° |
| 2026-05-06 16:09 | 39.15803 | -94.91821 | 2975 ft | 204 kts | 198° |
| 2026-05-06 16:10 | 39.14481 | -94.92261 | 2985 ft | 194 kts | 183° |
| 2026-05-06 16:10 | 39.13232 | -94.91757 | 3043 ft | 195 kts | 138° |
| 2026-05-06 16:10 | 39.12430 | -94.90327 | 3011 ft | 197 kts | 113° |
| 2026-05-06 16:10 | 39.11850 | -94.88753 | 3009 ft | 192 kts | 110° |
| 2026-05-06 16:11 | 39.11280 | -94.87183 | 2991 ft | 194 kts | 111° |
| 2026-05-06 16:11 | 39.10725 | -94.85628 | 2981 ft | 188 kts | 111° |
| 2026-05-06 16:11 | 39.10185 | -94.84107 | 2995 ft | 191 kts | 111° |
| 2026-05-06 16:11 | 39.09637 | -94.82532 | 2988 ft | 195 kts | 111° |
| 2026-05-06 16:12 | 39.09118 | -94.80940 | 2989 ft | 190 kts | 101° |
| 2026-05-06 16:12 | 39.09166 | -94.79294 | 2993 ft | 184 kts | 66° |
| 2026-05-06 16:12 | 39.10012 | -94.78233 | 3001 ft | 171 kts | 14° |
| 2026-05-06 16:12 | 39.11165 | -94.78099 | 3024 ft | 162 kts | 5° |
| 2026-05-06 16:13 | 39.12258 | -94.77902 | 3006 ft | 157 kts | 8° |
| 2026-05-06 16:13 | 39.13331 | -94.77655 | 2996 ft | 158 kts | 6° |
| 2026-05-06 16:13 | 39.14396 | -94.77406 | 2997 ft | 154 kts | 15° |
| 2026-05-06 16:13 | 39.15436 | -94.77058 | 3001 ft | 153 kts | 12° |
| 2026-05-06 16:14 | 39.16473 | -94.76747 | 2997 ft | 153 kts | 12° |
| 2026-05-06 16:14 | 39.17510 | -94.76440 | 2993 ft | 153 kts | 12° |
| 2026-05-06 16:14 | 39.18544 | -94.76134 | 3004 ft | 154 kts | 12° |
| 2026-05-06 16:14 | 39.19587 | -94.75826 | 2997 ft | 153 kts | 12° |
| 2026-05-06 16:15 | 39.20631 | -94.75528 | 2842 ft | 157 kts | 12° |
| 2026-05-06 16:15 | 39.21667 | -94.75068 | 2662 ft | 159 kts | 27° |
| 2026-05-06 16:15 | 39.22688 | -94.74710 | 2409 ft | 152 kts | 353° |
| 2026-05-06 16:15 | 39.23744 | -94.74806 | 2207 ft | 156 kts | 6° |
| 2026-05-06 16:16 | 39.24771 | -94.74360 | 2036 ft | 157 kts | 15° |
| 2026-05-06 16:16 | 39.25825 | -94.73993 | 1747 ft | 156 kts | 13° |
| 2026-05-06 16:16 | 39.26845 | -94.73660 | 1489 ft | 146 kts | 11° |
| 2026-05-06 16:16 | 39.27789 | -94.73393 | 1346 ft | 134 kts | 9° |
| 2026-05-06 16:17 | 39.28710 | -94.73130 | 1176 ft | 137 kts | 8° |
| 2026-05-06 16:17 | 39.29630 | -94.72845 | 1034 ft | 131 kts | 7° |
| 2026-05-06 16:17 | 39.30421 | -94.72612 | 1012 ft | 98 kts | 13° |
| 2026-05-06 16:17 | 39.30938 | -94.72460 | 1006 ft | 49 kts | 15° |
| 2026-05-06 16:18 | 39.31116 | -94.72308 | 1006 ft | 19 kts | 72° |
| 2026-05-06 16:18 | 39.31069 | -94.72244 | 1005 ft | 9 kts | 195° |
| 2026-05-06 16:18 | 39.31008 | -94.72266 | 1006 ft | 9 kts | 196° |
| 2026-05-06 16:18 | 39.30949 | -94.72288 | 1006 ft | 9 kts | 196° |
| 2026-05-06 16:19 | 39.30890 | -94.72303 | 1007 ft | 9 kts | 190° |
| 2026-05-06 16:19 | 39.30816 | -94.72322 | 1008 ft | 12 kts | 193° |
| 2026-05-06 16:19 | 39.30737 | -94.72347 | 1009 ft | 12 kts | 193° |
| 2026-05-06 16:19 | 39.30641 | -94.72378 | 1010 ft | 17 kts | 194° |
| 2026-05-06 16:20 | 39.30529 | -94.72411 | 1011 ft | 16 kts | 192° |
| 2026-05-06 16:20 | 39.30420 | -94.72441 | 1013 ft | 16 kts | 193° |
| 2026-05-06 16:20 | 39.30318 | -94.72469 | 1014 ft | 12 kts | 187° |
| 2026-05-06 16:20 | 39.30260 | -94.72401 | 1015 ft | 12 kts | 142° |
| 2026-05-06 16:21 | 39.30199 | -94.72340 | 1015 ft | 12 kts | 114° |
| 2026-05-06 16:21 | 39.30124 | -94.72326 | 1016 ft | 9 kts | 191° |
| 2026-05-06 16:21 | 39.30063 | -94.72342 | 1017 ft | 9 kts | 195° |
| 2026-05-06 16:21 | 39.30026 | -94.72339 | 1017 ft | 0 kts | 140° |
| 2026-05-06 16:22 | 39.30021 | -94.72325 | 1017 ft | 4 kts | 111° |
| 2026-05-06 16:22 | 39.30018 | -94.72313 | 1017 ft | 3 kts | 106° |
| 2026-05-06 16:22 | 39.30018 | -94.72312 | 1017 ft | 0 kts | 107° |